• Join FlightAware (Why Join?)
  • Login
  • US Flag 
05:09PM EDT


 

Airport Tracker/Info


-or-


 

Live Flight TrackerFlight Track Log ✈ SKW6492 ✈ 05-May-2013 ✈ KDEN - KCOD

Flight Track Log - Related Links

Times and Time Zones

All times are in EDT time to prevent confusion due to time zone crossing. See the SKW6492 flight status page for this flight to view local times or setup timezone preferences in your user account.

Time Position Orientation Groundspeed Altitude Reporting Facility
EDT Latitude Longitude Course Direction KTS MPH feet Rate Location/Type
09:58PM 39.8500 -104.7500 346° North 179 206 6,700  Level Denver TRACON
09:59PM 39.8667 -104.8167 288° West 242 278 8,500 2,040 Climbing Denver TRACON
10:01PM 40.1539 -104.7678 347° North  Level FlightAware Approximate
10:01PM 39.9356 -104.9225 310° West 278 320 11,400  Level Denver Center
10:02PM 40.2560 -104.7984 347° North  Level FlightAware Approximate
10:02PM 40.0203 -104.9494 346° North 319 367 12,900  Level Denver Center
10:03PM 40.3578 -104.8304 346° North  Level FlightAware Approximate
10:03PM 40.1108 -104.9139 17° North 345 397 14,800  Level Denver Center
10:04PM 40.4594 -104.8642 346° North  Level FlightAware Approximate
10:04PM 40.2017 -104.8281 36° Northeast 372 428 16,400  Level Denver Center
10:05PM 40.3025 -104.8064 North 366 421 17,800 1,200 Climbing Denver Center
10:06PM 40.4053 -104.8114 358° North 372 428 19,000 1,200 Climbing Denver Center
10:07PM 40.5056 -104.8717 335° Northwest 370 426 20,300 1,200 Climbing Denver Center
10:08PM 40.5883 -104.9542 323° Northwest 374 430 21,500 960 Climbing Denver Center
10:09PM 40.6931 -105.0633 322° Northwest 390 449 22,600 840 Climbing Denver Center
10:10PM 40.7806 -105.1458 324° Northwest 377 434 23,500 780 Climbing Denver Center
10:11PM 40.8703 -105.2389 322° Northwest 400 460 24,300 720 Climbing Denver Center
10:12PM 40.9614 -105.3336 322° Northwest 410 472 25,000 720 Climbing Denver Center
10:13PM 41.0614 -105.4339 323° Northwest 413 475 25,800 480 Climbing Denver Center
10:14PM 41.1522 -105.5283 322° Northwest 426 490 26,000 60 Climbing Denver Center
10:15PM 41.2589 -105.6375 322° Northwest 433 498 26,000  Level Denver Center
10:16PM 41.3497 -105.7292 323° Northwest 429 494 26,000  Level Denver Center
10:18PM 41.5064 -105.8831 324° Northwest 434 499 26,000  Level Salt Lake Center
10:18PM 41.5542 -105.9283 325° Northwest 440 506 26,000  Level Denver Center
10:19PM 41.6486 -106.0194 324° Northwest 441 507 26,000  Level Denver Center
10:21PM 41.7606 -106.1303 324° Northwest 443 510 26,000  Level Denver Center
10:22PM 41.8547 -106.2239 323° Northwest 442 509 26,000  Level Denver Center
10:23PM 41.9656 -106.3339 324° Northwest 443 510 26,000  Level Denver Center
10:24PM 42.0608 -106.4292 323° Northwest 445 512 26,000  Level Denver Center
10:25PM 42.1694 -106.5389 323° Northwest 438 504 26,000  Level Denver Center
10:26PM 42.2633 -106.6331 323° Northwest 439 505 26,000  Level Denver Center
10:27PM 42.3597 -106.7303 323° Northwest 445 512 26,000  Level Denver Center
10:28PM 42.4689 -106.8431 323° Northwest 440 506 26,000  Level Denver Center
10:29PM 42.5633 -106.9375 324° Northwest 446 513 26,000  Level Denver Center
10:30PM 42.6750 -107.0539 323° Northwest 444 511 26,000  Level Denver Center
10:31PM 42.7706 -107.1517 323° Northwest 448 516 26,000  Level Denver Center
10:31PM 42.8158 -107.1978 323° Northwest 448 516 26,000  Level Salt Lake Center
10:32PM 42.8794 -107.2628 323° Northwest 450 518 26,000  Level Denver Center
10:33PM 42.9797 -107.3664 323° Northwest 449 517 26,000  Level Denver Center
10:34PM 43.0750 -107.4667 322° Northwest 451 519 26,000  Level Denver Center
10:35PM 43.1867 -107.5831 323° Northwest 452 520 26,000  Level Denver Center
10:35PM 43.2336 -107.6350 321° Northwest 451 519 26,000  Level Salt Lake Center
10:36PM 43.3289 -107.7344 323° Northwest 451 519 26,000  Level Salt Lake Center
10:37PM 43.4236 -107.8350 322° Northwest 449 517 26,000  Level Salt Lake Center
10:38PM 43.5344 -107.9531 322° Northwest 450 518 26,000  Level Salt Lake Center
10:39PM 43.6289 -108.0544 322° Northwest 450 518 26,000 -600 Level Salt Lake Center
10:41PM 43.7383 -108.1722 322° Northwest 446 513 24,800 -1,740 Descending Salt Lake Center
10:42PM 43.8306 -108.2714 322° Northwest 439 505 22,500 -2,280 Descending Salt Lake Center
10:43PM 43.9217 -108.3706 322° Northwest 436 502 20,200 -2,400 Descending Salt Lake Center
10:44PM 44.0239 -108.4819 322° Northwest 424 488 17,600 -2,400 Descending Salt Lake Center
10:45PM 44.1067 -108.5711 322° Northwest 409 471 15,300 -2,280 Descending Salt Lake Center
10:46PM 44.1831 -108.6553 322° Northwest 390 449 13,000 -2,460 Descending Salt Lake Center
10:47PM 44.2631 -108.7419 322° Northwest 355 409 10,300 -1,500 Descending Salt Lake Center
10:48PM 44.3278 -108.8128 322° Northwest 331 381 10,000 -180 Descending Salt Lake Center
10:49PM 44.4014 -108.8939 322° Northwest 314 361 10,000 -600 Level Salt Lake Center
10:50PM 44.4631 -108.9261 340° North 282 325 8,900 -1,080 Descending Salt Lake Center
10:51PM 44.5206 -108.9119 10° North 242 278 7,800 -1,200 Descending Salt Lake Center
10:52PM 44.5614 -108.9372 336° Northwest 214 246 6,500 -960 Descending Salt Lake Center
10:53PM 44.5469 -108.9861 247° West 179 206 5,900 -600 Descending Salt Lake Center
10:54PM 44.5153 -109.0358 228° Southwest 168 193 5,400 -540 Descending Salt Lake Center